• Join FlightAware (Why Join?)
  • Login
  • US Flag 
05:46PM EDT


 

Airport Tracker/Info


-or-


 

Live Flight TrackerFlight Track Log ✈ SWA419 ✈ 24-Apr-2013 ✈ KSJC - KSNA

Flight Track Log - Related Links

Times and Time Zones

All times are in EDT time to prevent confusion due to time zone crossing. See the SWA419 flight status page for this flight to view local times or setup timezone preferences in your user account.

Time Position Orientation Groundspeed Altitude Reporting Facility
EDT Latitude Longitude Course Direction KTS MPH feet Rate Location/Type
12:17AM 37.3833 -121.9500 332° Northwest 152 175 1,600  Level Northern Cal TRACON
12:18AM 37.4333 -121.9833 332° Northwest 220 253 4,600 1,680 Climbing Northern Cal TRACON
12:19AM 37.4333 -121.9000 90° East 278 320 5,000 900 Climbing Northern Cal TRACON
12:20AM 37.3628 -121.8267 140° Southeast 274 315 6,600 1,440 Climbing Oakland Center
12:21AM 37.3050 -121.7600 137° Southeast 279 321 8,300 2,760 Climbing Oakland Center
12:22AM 37.2439 -121.6908 138° Southeast 291 335 12,300 3,960 Climbing Oakland Center
12:23AM 37.1742 -121.6117 138° Southeast 329 379 16,400 4,080 Climbing Oakland Center
12:24AM 37.0833 -121.5125 139° Southeast 364 419 20,600 3,480 Climbing Oakland Center
12:25AM 37.0031 -121.4222 138° Southeast 385 443 23,500 2,820 Climbing Oakland Center
12:26AM 36.9153 -121.3269 139° Southeast 411 473 26,400 2,580 Climbing Oakland Center
12:27AM 36.8264 -121.2278 138° Southeast 429 494 28,800 2,100 Climbing Oakland Center
12:28AM 36.7400 -121.1403 141° Southeast 445 512 30,700 1,920 Climbing Oakland Center
12:29AM 36.6433 -121.0331 138° Southeast 463 533 32,700 2,520 Climbing Oakland Center
12:30AM 36.5261 -120.9081 139° Southeast 461 531 35,900 2,580 Climbing Oakland Center
12:31AM 36.4311 -120.8075 140° Southeast 451 519 38,000 1,620 Climbing Oakland Center
12:32AM 36.3386 -120.7042 138° Southeast 449 517 39,200 1,320 Climbing Oakland Center
12:33AM 36.2406 -120.6031 140° Southeast 455 524 40,800 840 Climbing Oakland Center
12:34AM 36.1461 -120.5014 139° Southeast 450 518 41,000 60 Climbing Oakland Center
12:35AM 36.0503 -120.3992 139° Southeast 455 524 41,000  Level Oakland Center
12:36AM 35.9569 -120.3036 140° Southeast 433 498 41,000  Level Oakland Center
12:37AM 35.8622 -120.2039 140° Southeast 443 510 41,000  Level Oakland Center
12:38AM 35.7661 -120.1031 140° Southeast 450 518 41,000  Level Oakland Center
12:39AM 35.6678 -120.0014 140° Southeast 454 522 41,000  Level Oakland Center
12:40AM 35.5650 -119.9069 143° Southeast 456 525 41,000  Level Oakland Center
12:41AM 35.4603 -119.8175 145° Southeast 455 524 41,000  Level Oakland Center
12:42AM 35.3569 -119.7292 145° Southeast 451 519 41,000  Level Oakland Center
12:43AM 35.2531 -119.6406 145° Southeast 451 519 41,000  Level Oakland Center
12:44AM 35.1497 -119.5528 145° Southeast 451 519 41,000 -360 Level Oakland Center
12:45AM 35.0497 -119.4653 144° Southeast 449 517 40,300 -1,680 Descending Los Angeles Center
12:46AM 34.9483 -119.3786 145° Southeast 445 512 37,800 -2,640 Descending Los Angeles Center
12:47AM 34.8467 -119.2922 145° Southeast 446 513 34,900 -2,640 Descending Los Angeles Center
12:48AM 34.7442 -119.2036 145° Southeast 450 518 32,500 -2,400 Descending Los Angeles Center
12:49AM 34.6431 -119.1192 145° Southeast 432 497 30,100 -2,340 Descending Los Angeles Center
12:50AM 34.5394 -119.0347 146° Southeast 417 480 27,800 -2,160 Descending Los Angeles Center
12:51AM 34.4478 -118.9586 146° Southeast 402 463 25,700 -2,040 Descending Los Angeles Center
12:52AM 34.3583 -118.8850 146° Southeast 391 450 23,700 -2,040 Descending Los Angeles Center
12:53AM 34.2572 -118.8442 162° South 381 438 21,600 -2,040 Descending Los Angeles Center
12:54AM 34.1594 -118.8083 163° South 368 423 19,600 -2,100 Descending Los Angeles Center
12:55AM 34.0500 -118.7683 163° South 354 407 17,400 -2,100 Descending Los Angeles Center
12:56AM 33.9622 -118.7361 163° South 334 384 15,400 -1,680 Descending Los Angeles Center
12:57AM 33.8706 -118.7028 163° South 321 369 14,100 -840 Descending Los Angeles Center
12:58AM 33.7947 -118.6758 164° South 303 349 13,800 -960 Descending Los Angeles Center
12:59AM 33.7158 -118.6469 163° South 298 343 12,200 -1,680 Descending Los Angeles Center
01:00AM 33.6400 -118.6189 163° South 289 333 10,400 -1,680 Descending Los Angeles Center
01:01AM 33.5964 -118.5475 126° Southeast 269 310 8,900 -1,560 Descending Los Angeles Center
01:02AM 33.5756 -118.4686 108° East 261 300 7,300 -1,680 Descending Los Angeles Center
01:03AM 33.5822 -118.3672 85° East 256 295 5,500 -1,140 Descending Los Angeles Center
01:05AM 33.6053 -118.2878 71° East 257 296 5,000 -240 Descending Los Angeles Center
01:06AM 33.6272 -118.2081 72° East 255 293 5,100  Climbing Los Angeles Center
01:07AM 33.6494 -118.1281 72° East 255 293 5,000  Descending Los Angeles Center
01:07AM 33.6667 -118.0667 71° East 254 292 5,100 60 Climbing Southern California TRACON
01:08AM 33.6833 -117.9833 76° East 258 297 5,100 -600 Level Southern California TRACON
01:09AM 33.7333 -117.9333 40° Northeast 263 303 4,000 -1,080 Descending Southern California TRACON
01:10AM 33.8000 -117.8833 32° Northeast 251 289 3,000 -600 Descending Southern California TRACON
01:11AM 33.8167 -117.8333 68° East 203 234 2,800 -420 Descending Southern California TRACON
01:12AM 33.7667 -117.8167 165° South 176 203 2,200 -840 Descending Southern California TRACON
01:13AM 33.7333 -117.8333 203° Southwest 142 163 1,200 -840 Descending Southern California TRACON
01:14AM 33.7000 -117.8500 203° Southwest 122 140 600 -600 Descending Southern California TRACON